createdAt,value
2023-05-22T00:01:09.159Z,11.23
2023-05-22T00:03:37.632Z,10.53
2023-05-22T00:06:06.161Z,10.57
2023-05-22T00:08:34.389Z,10.83
2023-05-22T00:11:02.523Z,11.60
2023-05-22T00:13:32.806Z,11.67
2023-05-22T00:16:00.837Z,11.10
2023-05-22T00:18:28.812Z,11.40
2023-05-22T00:20:58.136Z,10.97
2023-05-22T00:23:27.943Z,12.23
2023-05-22T00:25:56.005Z,12.03
2023-05-22T00:28:24.022Z,11.57
2023-05-22T00:30:54.841Z,11.77
2023-05-22T00:33:22.922Z,11.20
2023-05-22T00:35:51.309Z,11.90
2023-05-22T00:38:30.550Z,12.10
2023-05-22T00:40:58.875Z,10.90
2023-05-22T00:43:27.975Z,13.53
2023-05-22T00:45:57.514Z,12.53
2023-05-22T00:48:27.748Z,11.80
2023-05-22T00:50:58.412Z,12.33
2023-05-22T00:53:29.461Z,12.47
2023-05-22T00:55:59.698Z,12.03
2023-05-22T00:58:28.460Z,12.10
2023-05-22T01:00:57.955Z,11.73
2023-05-22T01:03:27.585Z,11.57
2023-05-22T01:05:56.587Z,12.60
2023-05-22T01:08:24.744Z,12.73
2023-05-22T01:10:57.958Z,12.10
2023-05-22T01:13:33.892Z,11.60
2023-05-22T01:16:13.380Z,11.40
2023-05-22T01:18:45.072Z,12.57
2023-05-22T01:21:22.095Z,11.87
2023-05-22T01:24:17.204Z,11.27
2023-05-22T01:27:03.796Z,11.93
2023-05-22T01:29:48.639Z,11.43
2023-05-22T01:32:22.479Z,11.60
2023-05-22T01:34:56.605Z,11.70
2023-05-22T01:37:25.191Z,11.60
2023-05-22T01:39:54.433Z,12.10
2023-05-22T01:42:23.031Z,12.80
2023-05-22T01:44:51.128Z,11.70
2023-05-22T01:47:20.978Z,11.60
2023-05-22T01:49:49.155Z,10.97
2023-05-22T01:52:26.727Z,11.10
2023-05-22T01:55:03.622Z,11.20
2023-05-22T01:57:37.796Z,12.20
2023-05-22T02:00:10.801Z,12.50
2023-05-22T02:02:50.631Z,11.53
2023-05-22T02:05:21.791Z,11.67
2023-05-22T02:07:51.136Z,12.17
2023-05-22T02:10:21.447Z,11.77
2023-05-22T02:12:50.121Z,13.13
2023-05-22T02:15:18.383Z,11.57
2023-05-22T02:17:49.557Z,12.50
2023-05-22T02:20:17.804Z,12.40
2023-05-22T02:22:47.038Z,12.73
2023-05-22T02:25:17.034Z,12.20
2023-05-22T02:27:47.308Z,12.63
2023-05-22T02:30:16.365Z,11.93
2023-05-22T02:32:47.902Z,11.70
2023-05-22T02:35:16.077Z,11.80
2023-05-22T02:37:44.229Z,11.83
2023-05-22T02:40:13.018Z,12.50
2023-05-22T02:42:41.034Z,11.50
2023-05-22T02:45:10.423Z,12.07
2023-05-22T02:47:38.543Z,10.93
2023-05-22T02:50:09.773Z,11.47
2023-05-22T02:52:39.405Z,11.73
2023-05-22T02:55:08.558Z,12.70
2023-05-22T02:57:36.854Z,13.17
2023-05-22T03:00:06.890Z,13.30
2023-05-22T03:02:36.624Z,12.23
2023-05-22T03:05:05.387Z,12.00
2023-05-22T03:07:34.889Z,13.30
2023-05-22T03:10:02.959Z,12.60
2023-05-22T03:12:31.113Z,13.90
2023-05-22T03:14:59.357Z,12.93
2023-05-22T03:17:27.413Z,13.00
2023-05-22T03:19:55.470Z,13.10
2023-05-22T03:22:23.601Z,13.17
2023-05-22T03:24:53.506Z,12.73
2023-05-22T03:27:21.486Z,12.80
2023-05-22T03:29:50.587Z,11.90
2023-05-22T03:32:19.685Z,12.67
2023-05-22T03:34:47.932Z,13.17
2023-05-22T03:37:16.028Z,11.47
2023-05-22T03:39:44.268Z,13.70
2023-05-22T03:42:23.077Z,12.97
2023-05-22T03:44:51.763Z,14.00
2023-05-22T03:47:20.529Z,14.47
2023-05-22T03:49:48.577Z,14.87
2023-05-22T03:52:16.693Z,13.10
2023-05-22T03:54:44.673Z,12.53
2023-05-22T03:57:12.854Z,13.97
2023-05-22T03:59:42.498Z,13.77
2023-05-22T04:02:13.157Z,12.83
2023-05-22T04:04:41.318Z,13.07
2023-05-22T04:07:09.442Z,12.77
2023-05-22T04:09:37.664Z,12.77
2023-05-22T04:12:06.388Z,13.37
2023-05-22T04:14:34.661Z,13.13
2023-05-22T04:17:04.243Z,12.60
2023-05-22T04:19:32.381Z,13.00
2023-05-22T04:22:00.832Z,14.07
2023-05-22T04:24:28.989Z,12.40
2023-05-22T04:27:00.676Z,13.80
2023-05-22T04:29:29.488Z,13.33
2023-05-22T04:31:57.714Z,14.57
2023-05-22T04:34:28.648Z,14.00
2023-05-22T04:36:56.774Z,14.47
2023-05-22T04:39:26.269Z,14.23
2023-05-22T04:41:54.361Z,13.20
2023-05-22T04:44:22.964Z,12.60
2023-05-22T04:46:52.708Z,13.13
2023-05-22T04:49:20.772Z,13.37
2023-05-22T04:51:50.204Z,13.10
2023-05-22T04:54:18.196Z,13.10
2023-05-22T04:56:46.219Z,14.60
2023-05-22T04:59:16.731Z,15.10
2023-05-22T05:01:45.408Z,14.33
2023-05-22T05:04:13.693Z,14.47
2023-05-22T05:06:43.219Z,14.13
2023-05-22T05:09:12.743Z,14.70
2023-05-22T05:11:40.938Z,12.40
2023-05-22T05:14:08.966Z,14.17
2023-05-22T05:16:37.619Z,13.93
2023-05-22T05:19:05.877Z,14.53
2023-05-22T05:21:34.121Z,14.00
2023-05-22T05:24:03.734Z,13.90
2023-05-22T05:26:33.387Z,13.70
2023-05-22T05:29:01.551Z,13.50
2023-05-22T05:31:37.518Z,14.50
2023-05-22T05:34:18.272Z,14.10
2023-05-22T05:36:53.579Z,15.07
2023-05-22T05:39:23.228Z,13.90
2023-05-22T05:41:53.524Z,14.30
2023-05-22T05:44:21.588Z,13.30
2023-05-22T05:46:49.704Z,13.30
2023-05-22T05:49:20.635Z,14.10
2023-05-22T05:51:49.080Z,12.83
2023-05-22T05:54:18.413Z,13.80
2023-05-22T05:56:47.510Z,13.63
2023-05-22T05:59:16.946Z,13.70
2023-05-22T06:02:11.336Z,13.73
2023-05-22T06:04:39.612Z,12.70
2023-05-22T06:07:08.561Z,13.00
2023-05-22T06:09:45.672Z,13.27
2023-05-22T06:12:25.633Z,13.00
2023-05-22T06:14:56.854Z,12.07
2023-05-22T06:17:24.890Z,12.50
2023-05-22T06:19:52.979Z,12.00
2023-05-22T06:22:21.241Z,13.97
2023-05-22T06:24:51.286Z,12.30
2023-05-22T06:27:22.719Z,11.63
2023-05-22T06:29:52.579Z,12.13
2023-05-22T06:32:22.091Z,12.20
2023-05-22T06:34:52.534Z,12.60
2023-05-22T06:37:22.536Z,12.57
2023-05-22T06:39:50.963Z,12.40
2023-05-22T06:42:34.095Z,12.73
2023-05-22T06:45:28.860Z,12.60
2023-05-22T06:48:27.669Z,11.57
2023-05-22T06:51:07.129Z,11.13
2023-05-22T06:53:37.370Z,12.00
2023-05-22T06:56:09.424Z,11.67
2023-05-22T06:59:10.829Z,12.20
2023-05-22T07:01:58.843Z,11.00
2023-05-22T07:04:54.765Z,11.20
2023-05-22T07:07:30.056Z,11.90
2023-05-22T07:09:58.410Z,11.67
2023-05-22T07:12:29.545Z,11.17
2023-05-22T07:15:00.001Z,11.40
2023-05-22T07:17:28.358Z,11.60
2023-05-22T07:19:58.795Z,11.90
2023-05-22T07:22:28.563Z,11.80
2023-05-22T07:24:58.244Z,12.70
2023-05-22T07:27:31.150Z,11.90
2023-05-22T07:30:00.100Z,11.60
2023-05-22T07:32:28.565Z,12.80
2023-05-22T07:34:58.990Z,11.77
2023-05-22T07:37:27.008Z,11.33
2023-05-22T07:39:54.980Z,10.97
2023-05-22T07:42:23.624Z,11.60
2023-05-22T07:44:55.305Z,11.30
2023-05-22T07:47:23.526Z,11.70
2023-05-22T07:49:52.229Z,11.90
2023-05-22T07:52:23.770Z,12.17
2023-05-22T07:54:53.032Z,11.80
2023-05-22T07:57:23.062Z,12.93
2023-05-22T07:59:52.864Z,12.20
2023-05-22T08:02:20.989Z,11.57
2023-05-22T08:04:50.419Z,11.90
2023-05-22T08:07:18.544Z,11.07
2023-05-22T08:09:48.070Z,10.90
2023-05-22T08:12:16.021Z,11.37
2023-05-22T08:14:44.084Z,10.37
2023-05-22T08:17:12.112Z,10.20
2023-05-22T08:19:40.244Z,10.10
2023-05-22T08:22:08.466Z,10.00
2023-05-22T08:24:36.630Z,11.13
2023-05-22T08:27:06.349Z,10.13
2023-05-22T08:29:34.658Z,10.83
2023-05-22T08:32:02.694Z,9.90
2023-05-22T08:34:30.727Z,10.60
2023-05-22T08:36:59.094Z,10.43
2023-05-22T08:39:27.078Z,10.13
2023-05-22T08:41:55.129Z,10.67
2023-05-22T08:44:25.128Z,11.00
2023-05-22T08:46:53.587Z,11.17
2023-05-22T08:49:24.000Z,10.17
2023-05-22T08:51:57.101Z,10.70
2023-05-22T08:54:27.382Z,11.53
2023-05-22T08:56:57.175Z,11.20
2023-05-22T08:59:26.902Z,11.90
2023-05-22T09:01:56.667Z,11.37
2023-05-22T09:04:25.699Z,9.87
2023-05-22T09:06:55.196Z,10.57
2023-05-22T09:09:23.406Z,8.97
2023-05-22T09:11:51.453Z,10.80
2023-05-22T09:14:20.114Z,8.90
2023-05-22T09:16:54.962Z,9.57
2023-05-22T09:19:23.096Z,9.87
2023-05-22T09:21:51.348Z,9.03
2023-05-22T09:24:19.379Z,9.43
2023-05-22T09:26:48.395Z,10.20
2023-05-22T09:29:16.405Z,10.33
2023-05-22T09:31:45.235Z,9.40
2023-05-22T09:34:17.631Z,8.47
2023-05-22T09:36:45.789Z,8.90
2023-05-22T09:39:13.801Z,8.53
2023-05-22T09:41:41.929Z,9.60
2023-05-22T09:44:16.724Z,9.10
2023-05-22T09:46:47.366Z,10.00
2023-05-22T09:49:17.696Z,8.00
2023-05-22T09:51:48.804Z,7.93
2023-05-22T09:54:18.396Z,8.20
2023-05-22T09:56:50.832Z,8.80
2023-05-22T09:59:22.322Z,8.67
2023-05-22T10:01:51.923Z,7.80
2023-05-22T10:04:24.122Z,8.10
2023-05-22T10:06:54.417Z,8.00
2023-05-22T10:09:31.092Z,7.90
2023-05-22T10:12:04.231Z,7.60
2023-05-22T10:14:32.863Z,7.97
2023-05-22T10:17:03.078Z,7.57
2023-05-22T10:19:33.325Z,8.00
2023-05-22T10:22:02.840Z,8.27
2023-05-22T10:24:31.355Z,7.87
2023-05-22T10:27:00.205Z,7.57
2023-05-22T10:29:37.251Z,7.43
2023-05-22T10:32:10.336Z,8.10
2023-05-22T10:34:58.967Z,8.70
2023-05-22T10:37:54.935Z,8.47
2023-05-22T10:40:29.257Z,7.30
2023-05-22T10:43:01.551Z,8.50
2023-05-22T10:45:30.245Z,8.40
2023-05-22T10:48:06.107Z,8.40
2023-05-22T10:50:35.829Z,8.97
2023-05-22T10:53:25.146Z,8.37
2023-05-22T10:55:54.958Z,8.80
2023-05-22T10:58:29.366Z,8.23
2023-05-22T11:01:13.697Z,8.27
2023-05-22T11:03:59.005Z,8.23
2023-05-22T11:06:39.363Z,8.50
2023-05-22T11:09:29.380Z,7.90
2023-05-22T11:12:21.167Z,8.93
2023-05-22T11:14:54.581Z,8.37
2023-05-22T11:17:24.313Z,8.30
2023-05-22T11:20:00.574Z,7.80
2023-05-22T11:22:35.023Z,8.13
2023-05-22T11:25:07.966Z,8.23
2023-05-22T11:27:36.810Z,8.13
2023-05-22T11:30:06.706Z,7.20
2023-05-22T11:32:37.180Z,8.13
2023-05-22T11:35:08.133Z,8.53
2023-05-22T11:37:41.012Z,7.70
2023-05-22T11:40:10.263Z,8.10
2023-05-22T11:42:38.994Z,8.60
2023-05-22T11:45:08.388Z,7.43
2023-05-22T11:47:36.973Z,8.50
2023-05-22T11:50:07.078Z,8.27
2023-05-22T11:52:36.924Z,8.97
2023-05-22T11:55:08.206Z,8.47
2023-05-22T11:57:36.761Z,7.93
2023-05-22T12:00:06.444Z,8.50
2023-05-22T12:02:40.227Z,8.50
2023-05-22T12:05:11.807Z,8.30
2023-05-22T12:07:40.046Z,8.17
2023-05-22T12:10:11.057Z,7.90
2023-05-22T12:12:39.308Z,7.43
2023-05-22T12:15:08.260Z,7.60
2023-05-22T12:17:38.061Z,7.50
2023-05-22T12:20:07.109Z,7.57
2023-05-22T12:22:41.608Z,8.07
2023-05-22T12:25:16.786Z,7.83
2023-05-22T12:27:45.343Z,7.67
2023-05-22T12:30:15.350Z,7.90
2023-05-22T12:32:48.849Z,7.53
2023-05-22T12:35:17.539Z,7.97
2023-05-22T12:37:50.269Z,7.73
2023-05-22T12:40:20.020Z,8.23
2023-05-22T12:42:49.622Z,7.80
2023-05-22T12:45:18.093Z,7.50
2023-05-22T12:47:46.641Z,8.00
2023-05-22T12:50:14.958Z,7.83
2023-05-22T12:52:42.945Z,8.50
2023-05-22T12:55:12.202Z,7.97
2023-05-22T12:57:41.518Z,7.90
2023-05-22T13:00:11.205Z,8.47
2023-05-22T13:02:39.293Z,9.00
2023-05-22T13:05:08.030Z,8.10
2023-05-22T13:07:36.012Z,8.30
2023-05-22T13:10:04.980Z,7.70
2023-05-22T13:12:33.344Z,8.37
2023-05-22T13:15:02.917Z,7.60
2023-05-22T13:17:31.318Z,8.30
2023-05-22T13:19:59.559Z,8.17
2023-05-22T13:22:27.659Z,7.70
2023-05-22T13:24:55.972Z,8.60
2023-05-22T13:27:25.107Z,8.10
2023-05-22T13:29:53.153Z,8.47
2023-05-22T13:32:23.401Z,8.73
2023-05-22T13:34:51.444Z,7.90
2023-05-22T13:37:19.681Z,8.00
2023-05-22T13:39:47.786Z,8.90
2023-05-22T13:42:15.936Z,8.20
2023-05-22T13:44:44.014Z,7.90
2023-05-22T13:47:12.239Z,8.23
2023-05-22T13:49:41.911Z,6.90
2023-05-22T13:52:09.888Z,7.50
2023-05-22T13:54:37.973Z,7.60
2023-05-22T13:57:06.383Z,6.80
2023-05-22T13:59:34.767Z,6.70
2023-05-22T14:02:02.826Z,7.17
2023-05-22T14:04:30.971Z,6.97
2023-05-22T14:07:00.367Z,7.10
2023-05-22T14:09:28.411Z,7.00
2023-05-22T14:11:57.780Z,6.33
2023-05-22T14:14:25.930Z,7.13
2023-05-22T14:16:54.355Z,6.60
2023-05-22T14:19:22.441Z,6.60
2023-05-22T14:21:51.962Z,6.43
2023-05-22T14:24:21.368Z,7.00
2023-05-22T14:26:49.376Z,7.00
2023-05-22T14:29:17.630Z,6.40
2023-05-22T14:31:49.727Z,6.50
2023-05-22T14:34:19.886Z,6.50
2023-05-22T14:36:48.306Z,6.37
2023-05-22T14:39:16.368Z,6.60
2023-05-22T14:41:45.777Z,6.10
2023-05-22T14:44:13.806Z,5.97
2023-05-22T14:46:41.825Z,6.77
2023-05-22T14:49:09.983Z,6.53
2023-05-22T14:51:37.943Z,7.10
2023-05-22T14:54:06.826Z,6.80
2023-05-22T14:56:35.051Z,6.67
2023-05-22T14:59:05.431Z,6.67
2023-05-22T15:01:33.469Z,5.80
2023-05-22T15:04:01.490Z,6.53
2023-05-22T15:06:29.513Z,5.90
2023-05-22T15:08:57.586Z,6.87
2023-05-22T15:11:26.186Z,6.27
2023-05-22T15:13:54.706Z,6.33
2023-05-22T15:16:25.743Z,6.73
2023-05-22T15:18:55.041Z,6.40
2023-05-22T15:21:23.528Z,6.30
2023-05-22T15:23:51.715Z,6.60
2023-05-22T15:26:19.839Z,6.70
2023-05-22T15:28:47.848Z,6.00
2023-05-22T15:31:15.851Z,7.07
2023-05-22T15:33:46.572Z,6.80
2023-05-22T15:36:14.542Z,6.07
2023-05-22T15:38:42.593Z,6.60
2023-05-22T15:41:10.580Z,7.00
2023-05-22T15:43:38.597Z,6.60
2023-05-22T15:46:06.733Z,6.73
2023-05-22T15:48:34.772Z,6.13
2023-05-22T15:51:06.273Z,6.00
2023-05-22T15:53:34.263Z,5.87
2023-05-22T15:56:02.278Z,6.23
2023-05-22T15:58:30.423Z,6.43
2023-05-22T16:00:58.542Z,6.57
2023-05-22T16:03:26.934Z,6.30
2023-05-22T16:05:55.070Z,6.30
2023-05-22T16:08:25.425Z,6.80
2023-05-22T16:10:54.438Z,6.50
2023-05-22T16:13:22.642Z,6.37
2023-05-22T16:15:50.764Z,6.93
2023-05-22T16:18:21.333Z,6.03
2023-05-22T16:20:49.381Z,7.40
2023-05-22T16:23:17.539Z,6.90
2023-05-22T16:25:47.565Z,6.57
2023-05-22T16:28:17.182Z,5.90
2023-05-22T16:30:45.159Z,7.10
2023-05-22T16:33:13.453Z,6.07
2023-05-22T16:35:46.957Z,6.60
2023-05-22T16:38:15.185Z,7.03
2023-05-22T16:40:43.269Z,7.37
2023-05-22T16:43:13.807Z,7.00
2023-05-22T16:45:46.539Z,6.53
2023-05-22T16:48:14.742Z,7.43
2023-05-22T16:50:44.057Z,7.17
2023-05-22T16:53:12.051Z,7.00
2023-05-22T16:55:40.667Z,7.13
2023-05-22T16:58:09.503Z,6.50
2023-05-22T17:00:40.301Z,6.80
2023-05-22T17:03:09.515Z,8.57
2023-05-22T17:05:38.885Z,7.33
2023-05-22T17:08:08.293Z,7.40
2023-05-22T17:10:37.290Z,6.87
2023-05-22T17:13:06.494Z,7.57
2023-05-22T17:15:34.753Z,7.60
2023-05-22T17:18:05.678Z,7.33
2023-05-22T17:20:34.425Z,6.67
2023-05-22T17:23:02.391Z,8.00
2023-05-22T17:25:30.467Z,6.83
2023-05-22T17:27:58.523Z,7.10
2023-05-22T17:30:26.589Z,7.40
2023-05-22T17:32:56.884Z,7.70
2023-05-22T17:35:26.384Z,7.30
2023-05-22T17:37:54.478Z,8.00
2023-05-22T17:40:29.565Z,7.70
2023-05-22T17:43:08.306Z,7.63
2023-05-22T17:45:37.254Z,7.90
2023-05-22T17:48:05.548Z,8.23
2023-05-22T17:50:35.302Z,7.83
2023-05-22T17:53:03.376Z,8.50
2023-05-22T17:55:31.402Z,8.10
2023-05-22T17:57:59.967Z,8.97
2023-05-22T18:00:28.080Z,8.20
2023-05-22T18:02:56.661Z,8.10
2023-05-22T18:05:24.860Z,8.40
2023-05-22T18:07:54.242Z,9.50
2023-05-22T18:10:25.129Z,7.97
2023-05-22T18:12:53.264Z,8.40
2023-05-22T18:15:21.382Z,9.33
2023-05-22T18:17:49.600Z,8.23
2023-05-22T18:20:18.350Z,9.13
2023-05-22T18:22:46.378Z,8.87
2023-05-22T18:25:15.772Z,9.73
2023-05-22T18:27:43.786Z,8.50
2023-05-22T18:30:12.418Z,9.13
2023-05-22T18:32:40.559Z,9.13
2023-05-22T18:35:09.342Z,9.50
2023-05-22T18:37:37.790Z,9.40
2023-05-22T18:40:09.191Z,8.37
2023-05-22T18:42:38.690Z,9.40
2023-05-22T18:45:08.434Z,10.70
2023-05-22T18:47:36.641Z,10.70
2023-05-22T18:50:05.035Z,10.20
2023-05-22T18:52:33.240Z,10.57
2023-05-22T18:55:01.260Z,9.47
2023-05-22T18:57:29.318Z,11.13
2023-05-22T18:59:58.818Z,10.17
2023-05-22T19:02:27.066Z,11.43
2023-05-22T19:04:55.223Z,11.00
2023-05-22T19:07:23.333Z,11.50
2023-05-22T19:09:51.431Z,10.50
2023-05-22T19:12:20.094Z,11.17
2023-05-22T19:14:50.424Z,11.90
2023-05-22T19:17:19.821Z,10.80
2023-05-22T19:19:47.911Z,10.47
2023-05-22T19:22:17.958Z,10.03
2023-05-22T19:24:46.213Z,11.60
2023-05-22T19:27:14.241Z,11.77
2023-05-22T19:29:42.442Z,12.37
2023-05-22T19:32:10.536Z,11.37
2023-05-22T19:34:39.936Z,11.80
2023-05-22T19:37:09.372Z,12.00
2023-05-22T19:39:37.366Z,10.60
2023-05-22T19:42:08.164Z,11.83
2023-05-22T19:44:36.294Z,11.30
2023-05-22T19:47:05.406Z,9.90
2023-05-22T19:49:36.765Z,11.00
2023-05-22T19:52:08.249Z,10.57
2023-05-22T19:54:36.551Z,11.47
2023-05-22T19:57:04.744Z,11.10
2023-05-22T19:59:35.871Z,11.80
2023-05-22T20:02:04.758Z,10.93
2023-05-22T20:04:32.927Z,10.83
2023-05-22T20:07:02.246Z,12.23
2023-05-22T20:09:32.463Z,12.77
2023-05-22T20:12:01.643Z,12.50
2023-05-22T20:14:29.612Z,11.70
2023-05-22T20:16:58.973Z,12.27
2023-05-22T20:19:29.324Z,12.70
2023-05-22T20:21:58.258Z,11.93
2023-05-22T20:24:26.313Z,11.83
2023-05-22T20:26:56.639Z,12.27
2023-05-22T20:29:24.811Z,12.33
2023-05-22T20:31:55.847Z,12.60
2023-05-22T20:34:26.518Z,12.33
2023-05-22T20:36:54.820Z,11.00
2023-05-22T20:39:23.500Z,11.77
2023-05-22T20:41:51.548Z,12.20
2023-05-22T20:44:23.490Z,11.63
2023-05-22T20:46:53.335Z,11.50
2023-05-22T20:49:21.651Z,12.47
2023-05-22T20:51:50.099Z,13.90
2023-05-22T20:54:19.494Z,13.33
2023-05-22T20:56:47.637Z,12.83
2023-05-22T20:59:15.728Z,11.63
2023-05-22T21:01:46.262Z,14.00
2023-05-22T21:04:14.379Z,13.23
2023-05-22T21:06:42.393Z,14.13
2023-05-22T21:09:10.496Z,13.33
2023-05-22T21:11:38.560Z,13.97
2023-05-22T21:14:06.714Z,13.70
2023-05-22T21:16:35.721Z,12.20
2023-05-22T21:19:06.666Z,12.10
2023-05-22T21:21:36.212Z,12.40
2023-05-22T21:24:04.387Z,11.73
2023-05-22T21:26:32.414Z,12.10
2023-05-22T21:29:00.601Z,11.83
2023-05-22T21:31:28.770Z,12.73
2023-05-22T21:33:56.899Z,13.23
2023-05-22T21:36:26.271Z,15.00
2023-05-22T21:38:56.506Z,14.80
2023-05-22T21:41:24.721Z,14.40
2023-05-22T21:43:53.514Z,12.90
2023-05-22T21:46:23.236Z,12.40
2023-05-22T21:48:51.450Z,13.10
2023-05-22T21:51:19.628Z,12.70
2023-05-22T21:53:48.984Z,14.20
2023-05-22T21:56:17.000Z,14.13
2023-05-22T21:58:45.343Z,12.50
2023-05-22T22:01:13.537Z,13.33
2023-05-22T22:03:41.637Z,14.30
2023-05-22T22:06:10.220Z,14.10
2023-05-22T22:08:38.294Z,13.90
2023-05-22T22:11:07.697Z,14.60
2023-05-22T22:13:36.056Z,14.30
2023-05-22T22:16:04.418Z,14.20
2023-05-22T22:18:33.912Z,14.33
2023-05-22T22:21:02.628Z,14.13
2023-05-22T22:23:30.649Z,13.70
2023-05-22T22:25:58.644Z,13.40
2023-05-22T22:28:28.329Z,13.80
2023-05-22T22:30:56.365Z,14.33
2023-05-22T22:33:24.749Z,13.80
2023-05-22T22:35:53.804Z,13.30
2023-05-22T22:38:21.883Z,13.13
2023-05-22T22:40:49.860Z,13.30
2023-05-22T22:43:17.902Z,13.37
2023-05-22T22:45:47.336Z,14.43
2023-05-22T22:48:16.657Z,12.53
2023-05-22T22:50:46.811Z,13.43
2023-05-22T22:53:14.732Z,13.80
2023-05-22T22:55:42.914Z,12.67
2023-05-22T22:58:11.297Z,14.40
2023-05-22T23:00:39.202Z,14.30
2023-05-22T23:03:08.533Z,14.57
2023-05-22T23:05:36.675Z,13.53
2023-05-22T23:08:04.707Z,13.57
2023-05-22T23:10:32.780Z,15.33
2023-05-22T23:13:00.923Z,14.23
2023-05-22T23:15:29.146Z,14.90
2023-05-22T23:17:57.271Z,13.80
2023-05-22T23:20:26.712Z,14.50
2023-05-22T23:22:54.695Z,14.23
2023-05-22T23:25:22.851Z,15.73
2023-05-22T23:27:52.073Z,15.00
2023-05-22T23:30:20.268Z,16.00
2023-05-22T23:32:48.284Z,17.10
2023-05-22T23:35:16.366Z,16.70
2023-05-22T23:37:45.739Z,15.90
2023-05-22T23:40:14.188Z,16.70
2023-05-22T23:42:42.325Z,15.60
2023-05-22T23:45:10.575Z,16.30
2023-05-22T23:47:38.592Z,16.00
2023-05-22T23:50:07.836Z,15.73
2023-05-22T23:52:35.842Z,15.73
2023-05-22T23:55:06.663Z,15.47
2023-05-22T23:57:34.661Z,16.70
